sensor_id;sensor_type;location;lat;lon;timestamp;P1;durP1;ratioP1;P2;durP2;ratioP2
2458;SDS011;1241;50.920;6.936;2022-09-28T00:00:27;23.27;;;15.85;;
2458;SDS011;1241;50.920;6.936;2022-09-28T00:02:53;16.73;;;14.10;;
2458;SDS011;1241;50.920;6.936;2022-09-28T00:05:23;15.75;;;11.32;;
2458;SDS011;1241;50.920;6.936;2022-09-28T00:07:53;15.90;;;13.40;;
2458;SDS011;1241;50.920;6.936;2022-09-28T00:10:20;16.70;;;13.68;;
2458;SDS011;1241;50.920;6.936;2022-09-28T00:12:50;14.77;;;11.75;;
2458;SDS011;1241;50.920;6.936;2022-09-28T00:15:19;23.42;;;17.38;;
2458;SDS011;1241;50.920;6.936;2022-09-28T00:17:46;23.10;;;17.08;;
2458;SDS011;1241;50.920;6.936;2022-09-28T00:20:12;17.23;;;11.90;;
2458;SDS011;1241;50.920;6.936;2022-09-28T00:22:38;15.48;;;12.68;;
2458;SDS011;1241;50.920;6.936;2022-09-28T00:25:04;7.68;;;6.15;;
2458;SDS011;1241;50.920;6.936;2022-09-28T00:27:31;17.10;;;13.15;;
2458;SDS011;1241;50.920;6.936;2022-09-28T00:29:57;20.67;;;14.95;;
2458;SDS011;1241;50.920;6.936;2022-09-28T00:32:23;15.20;;;11.80;;
2458;SDS011;1241;50.920;6.936;2022-09-28T00:34:49;3.20;;;2.90;;
2458;SDS011;1241;50.920;6.936;2022-09-28T00:37:16;15.55;;;10.25;;
2458;SDS011;1241;50.920;6.936;2022-09-28T00:39:43;11.07;;;8.57;;
2458;SDS011;1241;50.920;6.936;2022-09-28T00:42:20;18.08;;;12.18;;
2458;SDS011;1241;50.920;6.936;2022-09-28T00:44:52;18.25;;;12.45;;
2458;SDS011;1241;50.920;6.936;2022-09-28T00:49:59;20.75;;;15.00;;
2458;SDS011;1241;50.920;6.936;2022-09-28T00:52:38;8.52;;;6.65;;
2458;SDS011;1241;50.920;6.936;2022-09-28T00:56:01;10.10;;;7.78;;
2458;SDS011;1241;50.920;6.936;2022-09-28T00:58:22;13.43;;;9.90;;
2458;SDS011;1241;50.920;6.936;2022-09-28T01:00:52;14.75;;;11.02;;
2458;SDS011;1241;50.920;6.936;2022-09-28T01:03:20;25.13;;;18.13;;
2458;SDS011;1241;50.920;6.936;2022-09-28T01:05:47;15.17;;;11.07;;
2458;SDS011;1241;50.920;6.936;2022-09-28T01:08:14;18.58;;;12.15;;
2458;SDS011;1241;50.920;6.936;2022-09-28T01:10:42;13.80;;;11.50;;
2458;SDS011;1241;50.920;6.936;2022-09-28T01:13:09;9.53;;;6.23;;
2458;SDS011;1241;50.920;6.936;2022-09-28T01:15:39;15.55;;;12.30;;
2458;SDS011;1241;50.920;6.936;2022-09-28T01:18:17;18.60;;;15.52;;
2458;SDS011;1241;50.920;6.936;2022-09-28T01:21:00;13.57;;;10.13;;
2458;SDS011;1241;50.920;6.936;2022-09-28T01:26:47;17.80;;;11.63;;
2458;SDS011;1241;50.920;6.936;2022-09-28T01:29:29;20.10;;;13.73;;
2458;SDS011;1241;50.920;6.936;2022-09-28T01:35:06;17.33;;;13.77;;
2458;SDS011;1241;50.920;6.936;2022-09-28T01:37:41;12.52;;;9.25;;
2458;SDS011;1241;50.920;6.936;2022-09-28T01:40:21;12.90;;;10.02;;
2458;SDS011;1241;50.920;6.936;2022-09-28T01:42:52;11.65;;;9.02;;
2458;SDS011;1241;50.920;6.936;2022-09-28T01:45:24;22.23;;;17.13;;
2458;SDS011;1241;50.920;6.936;2022-09-28T01:47:57;14.70;;;11.27;;
2458;SDS011;1241;50.920;6.936;2022-09-28T01:50:28;17.83;;;13.32;;
2458;SDS011;1241;50.920;6.936;2022-09-28T01:53:42;10.13;;;7.28;;
2458;SDS011;1241;50.920;6.936;2022-09-28T01:56:10;19.13;;;14.75;;
2458;SDS011;1241;50.920;6.936;2022-09-28T01:58:47;18.52;;;13.23;;
2458;SDS011;1241;50.920;6.936;2022-09-28T02:01:29;18.80;;;15.15;;
2458;SDS011;1241;50.920;6.936;2022-09-28T02:04:07;14.82;;;9.23;;
2458;SDS011;1241;50.920;6.936;2022-09-28T02:06:42;11.48;;;9.82;;
2458;SDS011;1241;50.920;6.936;2022-09-28T02:09:17;10.15;;;8.40;;
2458;SDS011;1241;50.920;6.936;2022-09-28T02:12:09;12.02;;;9.15;;
2458;SDS011;1241;50.920;6.936;2022-09-28T02:14:40;11.93;;;7.38;;
2458;SDS011;1241;50.920;6.936;2022-09-28T02:17:09;14.57;;;10.82;;
2458;SDS011;1241;50.920;6.936;2022-09-28T02:19:36;8.75;;;6.65;;
2458;SDS011;1241;50.920;6.936;2022-09-28T02:24:58;14.02;;;8.95;;
2458;SDS011;1241;50.920;6.936;2022-09-28T02:30:05;12.10;;;9.82;;
2458;SDS011;1241;50.920;6.936;2022-09-28T02:32:32;13.30;;;10.07;;
2458;SDS011;1241;50.920;6.936;2022-09-28T02:35:15;14.95;;;12.18;;
2458;SDS011;1241;50.920;6.936;2022-09-28T02:37:43;11.63;;;6.60;;
2458;SDS011;1241;50.920;6.936;2022-09-28T02:43:01;13.60;;;8.98;;
2458;SDS011;1241;50.920;6.936;2022-09-28T02:45:38;18.17;;;13.68;;
2458;SDS011;1241;50.920;6.936;2022-09-28T02:48:38;14.75;;;11.15;;
2458;SDS011;1241;50.920;6.936;2022-09-28T02:57:36;15.15;;;11.00;;
2458;SDS011;1241;50.920;6.936;2022-09-28T03:00:02;12.57;;;10.70;;
2458;SDS011;1241;50.920;6.936;2022-09-28T03:02:40;15.23;;;10.98;;
2458;SDS011;1241;50.920;6.936;2022-09-28T03:05:37;19.63;;;14.55;;
2458;SDS011;1241;50.920;6.936;2022-09-28T03:08:27;11.82;;;9.35;;
2458;SDS011;1241;50.920;6.936;2022-09-28T03:11:03;9.85;;;7.03;;
2458;SDS011;1241;50.920;6.936;2022-09-28T03:13:34;12.10;;;9.48;;
2458;SDS011;1241;50.920;6.936;2022-09-28T03:16:07;13.48;;;11.02;;
2458;SDS011;1241;50.920;6.936;2022-09-28T03:18:34;12.05;;;8.00;;
2458;SDS011;1241;50.920;6.936;2022-09-28T03:21:00;11.90;;;10.53;;
2458;SDS011;1241;50.920;6.936;2022-09-28T03:23:28;19.52;;;10.82;;
2458;SDS011;1241;50.920;6.936;2022-09-28T03:25:54;14.83;;;10.90;;
2458;SDS011;1241;50.920;6.936;2022-09-28T03:28:20;13.90;;;11.00;;
2458;SDS011;1241;50.920;6.936;2022-09-28T03:30:46;14.18;;;11.07;;
2458;SDS011;1241;50.920;6.936;2022-09-28T03:33:12;15.43;;;12.27;;
2458;SDS011;1241;50.920;6.936;2022-09-28T03:35:38;15.17;;;13.50;;
2458;SDS011;1241;50.920;6.936;2022-09-28T03:38:04;18.73;;;12.30;;
2458;SDS011;1241;50.920;6.936;2022-09-28T03:40:32;17.35;;;12.60;;
2458;SDS011;1241;50.920;6.936;2022-09-28T03:42:59;13.47;;;12.03;;
2458;SDS011;1241;50.920;6.936;2022-09-28T03:45:25;19.95;;;15.57;;
2458;SDS011;1241;50.920;6.936;2022-09-28T03:47:52;14.40;;;12.98;;
2458;SDS011;1241;50.920;6.936;2022-09-28T03:50:17;17.63;;;14.40;;
2458;SDS011;1241;50.920;6.936;2022-09-28T03:52:43;14.43;;;12.87;;
2458;SDS011;1241;50.920;6.936;2022-09-28T03:55:09;14.97;;;13.37;;
2458;SDS011;1241;50.920;6.936;2022-09-28T03:57:35;18.27;;;12.32;;
2458;SDS011;1241;50.920;6.936;2022-09-28T04:00:03;18.95;;;13.85;;
2458;SDS011;1241;50.920;6.936;2022-09-28T04:02:38;19.52;;;15.10;;
2458;SDS011;1241;50.920;6.936;2022-09-28T04:05:04;18.85;;;15.75;;
2458;SDS011;1241;50.920;6.936;2022-09-28T04:07:30;16.47;;;14.60;;
2458;SDS011;1241;50.920;6.936;2022-09-28T04:09:57;18.13;;;14.90;;
2458;SDS011;1241;50.920;6.936;2022-09-28T04:12:23;12.95;;;11.05;;
2458;SDS011;1241;50.920;6.936;2022-09-28T04:14:48;19.07;;;15.57;;
2458;SDS011;1241;50.920;6.936;2022-09-28T04:17:16;19.55;;;16.70;;
2458;SDS011;1241;50.920;6.936;2022-09-28T04:19:42;13.00;;;11.27;;
2458;SDS011;1241;50.920;6.936;2022-09-28T04:22:36;15.68;;;14.05;;
2458;SDS011;1241;50.920;6.936;2022-09-28T04:25:02;15.53;;;12.93;;
2458;SDS011;1241;50.920;6.936;2022-09-28T04:27:28;16.58;;;12.77;;
2458;SDS011;1241;50.920;6.936;2022-09-28T04:30:13;16.48;;;13.50;;
2458;SDS011;1241;50.920;6.936;2022-09-28T04:32:42;14.50;;;11.68;;
2458;SDS011;1241;50.920;6.936;2022-09-28T04:35:10;12.63;;;11.52;;
2458;SDS011;1241;50.920;6.936;2022-09-28T04:37:38;16.58;;;13.98;;
2458;SDS011;1241;50.920;6.936;2022-09-28T04:40:05;18.92;;;14.07;;
2458;SDS011;1241;50.920;6.936;2022-09-28T04:42:32;17.13;;;13.85;;
2458;SDS011;1241;50.920;6.936;2022-09-28T04:44:58;13.80;;;11.23;;
2458;SDS011;1241;50.920;6.936;2022-09-28T04:47:25;23.55;;;19.42;;
2458;SDS011;1241;50.920;6.936;2022-09-28T04:50:11;19.70;;;14.45;;
2458;SDS011;1241;50.920;6.936;2022-09-28T04:52:57;14.18;;;12.75;;
2458;SDS011;1241;50.920;6.936;2022-09-28T04:55:25;15.82;;;12.98;;
2458;SDS011;1241;50.920;6.936;2022-09-28T04:57:52;16.23;;;13.82;;
2458;SDS011;1241;50.920;6.936;2022-09-28T05:00:18;19.30;;;16.67;;
2458;SDS011;1241;50.920;6.936;2022-09-28T05:02:58;17.50;;;11.93;;
2458;SDS011;1241;50.920;6.936;2022-09-28T05:05:43;18.55;;;15.57;;
2458;SDS011;1241;50.920;6.936;2022-09-28T05:08:33;15.43;;;13.82;;
2458;SDS011;1241;50.920;6.936;2022-09-28T05:11:00;17.08;;;12.55;;
2458;SDS011;1241;50.920;6.936;2022-09-28T05:13:30;14.95;;;13.40;;
2458;SDS011;1241;50.920;6.936;2022-09-28T05:15:57;18.08;;;14.80;;
2458;SDS011;1241;50.920;6.936;2022-09-28T05:18:23;18.05;;;14.15;;
2458;SDS011;1241;50.920;6.936;2022-09-28T05:20:59;18.90;;;16.05;;
2458;SDS011;1241;50.920;6.936;2022-09-28T05:23:26;15.70;;;13.43;;
2458;SDS011;1241;50.920;6.936;2022-09-28T05:25:54;15.07;;;13.55;;
2458;SDS011;1241;50.920;6.936;2022-09-28T05:28:26;16.23;;;14.48;;
2458;SDS011;1241;50.920;6.936;2022-09-28T05:31:12;14.23;;;10.98;;
2458;SDS011;1241;50.920;6.936;2022-09-28T05:34:07;21.05;;;17.58;;
2458;SDS011;1241;50.920;6.936;2022-09-28T05:36:33;15.50;;;10.57;;
2458;SDS011;1241;50.920;6.936;2022-09-28T05:38:59;14.30;;;12.85;;
2458;SDS011;1241;50.920;6.936;2022-09-28T05:41:27;11.15;;;10.00;;
2458;SDS011;1241;50.920;6.936;2022-09-28T05:43:53;12.93;;;11.03;;
2458;SDS011;1241;50.920;6.936;2022-09-28T05:46:19;16.20;;;12.48;;
2458;SDS011;1241;50.920;6.936;2022-09-28T05:48:47;12.18;;;10.20;;
2458;SDS011;1241;50.920;6.936;2022-09-28T05:51:12;15.63;;;12.60;;
2458;SDS011;1241;50.920;6.936;2022-09-28T05:53:38;17.63;;;12.43;;
2458;SDS011;1241;50.920;6.936;2022-09-28T05:56:04;22.23;;;17.23;;
2458;SDS011;1241;50.920;6.936;2022-09-28T05:58:32;15.02;;;12.52;;
2458;SDS011;1241;50.920;6.936;2022-09-28T06:00:58;13.60;;;11.47;;
2458;SDS011;1241;50.920;6.936;2022-09-28T06:03:24;12.73;;;11.43;;
2458;SDS011;1241;50.920;6.936;2022-09-28T06:05:49;11.47;;;9.93;;
2458;SDS011;1241;50.920;6.936;2022-09-28T06:08:16;17.60;;;13.68;;
2458;SDS011;1241;50.920;6.936;2022-09-28T06:10:45;12.07;;;10.55;;
2458;SDS011;1241;50.920;6.936;2022-09-28T06:13:12;13.15;;;11.73;;
2458;SDS011;1241;50.920;6.936;2022-09-28T06:15:40;11.50;;;10.40;;
2458;SDS011;1241;50.920;6.936;2022-09-28T06:18:10;11.07;;;9.95;;
2458;SDS011;1241;50.920;6.936;2022-09-28T06:20:57;14.40;;;12.48;;
2458;SDS011;1241;50.920;6.936;2022-09-28T06:23:32;10.50;;;9.40;;
2458;SDS011;1241;50.920;6.936;2022-09-28T06:25:58;15.30;;;11.53;;
2458;SDS011;1241;50.920;6.936;2022-09-28T06:28:24;14.77;;;12.35;;
2458;SDS011;1241;50.920;6.936;2022-09-28T06:30:51;11.15;;;9.98;;
2458;SDS011;1241;50.920;6.936;2022-09-28T06:33:18;9.40;;;8.57;;
2458;SDS011;1241;50.920;6.936;2022-09-28T06:35:44;11.68;;;9.35;;
2458;SDS011;1241;50.920;6.936;2022-09-28T06:38:10;7.63;;;6.97;;
2458;SDS011;1241;50.920;6.936;2022-09-28T06:40:36;13.17;;;10.60;;
2458;SDS011;1241;50.920;6.936;2022-09-28T06:43:03;10.60;;;7.88;;
2458;SDS011;1241;50.920;6.936;2022-09-28T06:45:52;10.57;;;8.60;;
2458;SDS011;1241;50.920;6.936;2022-09-28T06:48:47;11.80;;;8.50;;
2458;SDS011;1241;50.920;6.936;2022-09-28T06:51:18;18.95;;;16.75;;
2458;SDS011;1241;50.920;6.936;2022-09-28T06:54:04;12.77;;;11.27;;
2458;SDS011;1241;50.920;6.936;2022-09-28T06:56:46;30.92;;;21.85;;
2458;SDS011;1241;50.920;6.936;2022-09-28T06:59:12;14.27;;;11.50;;
2458;SDS011;1241;50.920;6.936;2022-09-28T07:01:38;11.43;;;10.23;;
2458;SDS011;1241;50.920;6.936;2022-09-28T07:04:19;11.18;;;10.07;;
2458;SDS011;1241;50.920;6.936;2022-09-28T07:07:04;20.17;;;15.45;;
2458;SDS011;1241;50.920;6.936;2022-09-28T07:09:47;11.88;;;10.57;;
2458;SDS011;1241;50.920;6.936;2022-09-28T07:12:27;6.28;;;5.40;;
2458;SDS011;1241;50.920;6.936;2022-09-28T07:15:02;10.57;;;7.50;;
2458;SDS011;1241;50.920;6.936;2022-09-28T07:17:29;15.88;;;10.88;;
2458;SDS011;1241;50.920;6.936;2022-09-28T07:19:59;12.18;;;9.73;;
2458;SDS011;1241;50.920;6.936;2022-09-28T07:22:25;7.87;;;7.10;;
2458;SDS011;1241;50.920;6.936;2022-09-28T07:24:51;11.38;;;9.90;;
2458;SDS011;1241;50.920;6.936;2022-09-28T07:27:36;9.98;;;8.75;;
2458;SDS011;1241;50.920;6.936;2022-09-28T07:30:25;21.88;;;17.00;;
2458;SDS011;1241;50.920;6.936;2022-09-28T07:33:06;14.68;;;13.13;;
2458;SDS011;1241;50.920;6.936;2022-09-28T07:35:52;14.40;;;12.00;;
2458;SDS011;1241;50.920;6.936;2022-09-28T07:38:21;16.73;;;13.43;;
2458;SDS011;1241;50.920;6.936;2022-09-28T07:40:47;14.87;;;13.30;;
2458;SDS011;1241;50.920;6.936;2022-09-28T07:43:32;16.33;;;12.15;;
2458;SDS011;1241;50.920;6.936;2022-09-28T07:45:58;12.57;;;9.80;;
2458;SDS011;1241;50.920;6.936;2022-09-28T07:48:24;14.27;;;9.60;;
2458;SDS011;1241;50.920;6.936;2022-09-28T07:51:08;15.82;;;11.10;;
2458;SDS011;1241;50.920;6.936;2022-09-28T07:53:45;16.63;;;12.57;;
2458;SDS011;1241;50.920;6.936;2022-09-28T07:56:47;11.90;;;7.15;;
2458;SDS011;1241;50.920;6.936;2022-09-28T07:59:18;14.00;;;8.45;;
2458;SDS011;1241;50.920;6.936;2022-09-28T08:02:03;17.08;;;12.27;;
2458;SDS011;1241;50.920;6.936;2022-09-28T08:04:28;16.03;;;12.00;;
2458;SDS011;1241;50.920;6.936;2022-09-28T08:06:54;11.60;;;10.40;;
2458;SDS011;1241;50.920;6.936;2022-09-28T08:09:20;11.60;;;9.87;;
2458;SDS011;1241;50.920;6.936;2022-09-28T08:12:04;15.45;;;11.88;;
2458;SDS011;1241;50.920;6.936;2022-09-28T08:14:57;15.23;;;10.38;;
2458;SDS011;1241;50.920;6.936;2022-09-28T08:17:33;8.55;;;6.55;;
2458;SDS011;1241;50.920;6.936;2022-09-28T08:20:03;11.18;;;8.73;;
2458;SDS011;1241;50.920;6.936;2022-09-28T08:22:48;15.25;;;11.60;;
2458;SDS011;1241;50.920;6.936;2022-09-28T08:25:13;10.83;;;9.20;;
2458;SDS011;1241;50.920;6.936;2022-09-28T08:27:39;9.33;;;7.33;;
2458;SDS011;1241;50.920;6.936;2022-09-28T08:30:05;8.90;;;8.02;;
2458;SDS011;1241;50.920;6.936;2022-09-28T08:32:58;10.50;;;7.78;;
2458;SDS011;1241;50.920;6.936;2022-09-28T08:35:42;11.32;;;9.25;;
2458;SDS011;1241;50.920;6.936;2022-09-28T08:38:15;12.85;;;9.80;;
2458;SDS011;1241;50.920;6.936;2022-09-28T08:44:26;14.07;;;11.18;;
2458;SDS011;1241;50.920;6.936;2022-09-28T08:47:24;16.58;;;12.88;;
2458;SDS011;1241;50.920;6.936;2022-09-28T08:50:25;12.43;;;9.88;;
2458;SDS011;1241;50.920;6.936;2022-09-28T08:53:04;10.63;;;9.43;;
2458;SDS011;1241;50.920;6.936;2022-09-28T08:56:05;12.45;;;9.32;;
2458;SDS011;1241;50.920;6.936;2022-09-28T08:58:46;6.10;;;5.50;;
2458;SDS011;1241;50.920;6.936;2022-09-28T09:01:18;10.63;;;8.75;;
2458;SDS011;1241;50.920;6.936;2022-09-28T09:03:48;8.27;;;6.82;;
2458;SDS011;1241;50.920;6.936;2022-09-28T09:17:56;5.63;;;4.63;;
2458;SDS011;1241;50.920;6.936;2022-09-28T09:37:18;12.38;;;7.80;;
2458;SDS011;1241;50.920;6.936;2022-09-28T09:40:39;6.50;;;5.28;;
2458;SDS011;1241;50.920;6.936;2022-09-28T09:44:03;4.03;;;3.63;;
2458;SDS011;1241;50.920;6.936;2022-09-28T09:47:15;4.80;;;3.42;;
2458;SDS011;1241;50.920;6.936;2022-09-28T09:55:58;4.40;;;3.40;;
2458;SDS011;1241;50.920;6.936;2022-09-28T09:59:35;6.85;;;5.57;;
2458;SDS011;1241;50.920;6.936;2022-09-28T10:04:53;7.78;;;5.93;;
2458;SDS011;1241;50.920;6.936;2022-09-28T10:10:14;2.88;;;2.65;;
2458;SDS011;1241;50.920;6.936;2022-09-28T10:12:50;10.80;;;7.38;;
2458;SDS011;1241;50.920;6.936;2022-09-28T10:15:32;7.10;;;5.70;;
2458;SDS011;1241;50.920;6.936;2022-09-28T10:18:22;10.10;;;7.70;;
2458;SDS011;1241;50.920;6.936;2022-09-28T10:21:10;5.97;;;4.35;;
2458;SDS011;1241;50.920;6.936;2022-09-28T10:23:49;6.20;;;3.83;;
2458;SDS011;1241;50.920;6.936;2022-09-28T10:26:34;7.80;;;5.47;;
2458;SDS011;1241;50.920;6.936;2022-09-28T10:29:04;4.32;;;3.85;;
2458;SDS011;1241;50.920;6.936;2022-09-28T10:31:39;6.63;;;5.05;;
2458;SDS011;1241;50.920;6.936;2022-09-28T10:34:15;6.10;;;3.70;;
2458;SDS011;1241;50.920;6.936;2022-09-28T10:36:44;8.55;;;7.72;;
2458;SDS011;1241;50.920;6.936;2022-09-28T10:39:21;6.05;;;3.83;;
2458;SDS011;1241;50.920;6.936;2022-09-28T10:41:54;3.90;;;3.22;;
2458;SDS011;1241;50.920;6.936;2022-09-28T10:44:26;4.80;;;3.80;;
2458;SDS011;1241;50.920;6.936;2022-09-28T10:47:14;5.72;;;5.13;;
2458;SDS011;1241;50.920;6.936;2022-09-28T10:49:45;6.75;;;5.85;;
2458;SDS011;1241;50.920;6.936;2022-09-28T10:52:30;7.35;;;6.22;;
2458;SDS011;1241;50.920;6.936;2022-09-28T10:57:46;7.00;;;5.37;;
2458;SDS011;1241;50.920;6.936;2022-09-28T11:03:29;8.13;;;6.47;;
2458;SDS011;1241;50.920;6.936;2022-09-28T11:06:01;7.10;;;4.60;;
2458;SDS011;1241;50.920;6.936;2022-09-28T11:08:30;7.47;;;5.53;;
2458;SDS011;1241;50.920;6.936;2022-09-28T11:11:03;5.07;;;3.83;;
2458;SDS011;1241;50.920;6.936;2022-09-28T11:13:38;13.67;;;11.47;;
2458;SDS011;1241;50.920;6.936;2022-09-28T11:16:17;4.37;;;3.67;;
2458;SDS011;1241;50.920;6.936;2022-09-28T11:18:52;4.97;;;3.97;;
2458;SDS011;1241;50.920;6.936;2022-09-28T11:21:23;6.03;;;5.43;;
2458;SDS011;1241;50.920;6.936;2022-09-28T11:24:04;3.20;;;2.43;;
2458;SDS011;1241;50.920;6.936;2022-09-28T11:26:43;3.53;;;3.23;;
2458;SDS011;1241;50.920;6.936;2022-09-28T11:32:19;4.47;;;3.40;;
2458;SDS011;1241;50.920;6.936;2022-09-28T11:35:13;3.93;;;3.50;;
2458;SDS011;1241;50.920;6.936;2022-09-28T11:41:00;4.30;;;3.70;;
2458;SDS011;1241;50.920;6.936;2022-09-28T11:43:43;3.50;;;3.20;;
2458;SDS011;1241;50.920;6.936;2022-09-28T11:49:01;3.30;;;2.60;;
2458;SDS011;1241;50.920;6.936;2022-09-28T11:51:35;2.50;;;2.30;;
2458;SDS011;1241;50.920;6.936;2022-09-28T11:54:11;4.20;;;2.90;;
2458;SDS011;1241;50.920;6.936;2022-09-28T11:56:47;3.50;;;3.00;;
2458;SDS011;1241;50.920;6.936;2022-09-28T11:59:19;5.00;;;2.93;;
2458;SDS011;1241;50.920;6.936;2022-09-28T12:12:32;3.30;;;2.97;;
2458;SDS011;1241;50.920;6.936;2022-09-28T12:15:12;3.17;;;2.92;;
2458;SDS011;1241;50.920;6.936;2022-09-28T12:18:04;4.37;;;2.80;;
2458;SDS011;1241;50.920;6.936;2022-09-28T12:20:37;4.40;;;2.30;;
2458;SDS011;1241;50.920;6.936;2022-09-28T12:23:16;3.60;;;3.05;;
2458;SDS011;1241;50.920;6.936;2022-09-28T12:25:50;5.13;;;3.23;;
2458;SDS011;1241;50.920;6.936;2022-09-28T12:28:30;2.25;;;2.05;;
2458;SDS011;1241;50.920;6.936;2022-09-28T12:31:06;5.33;;;3.23;;
2458;SDS011;1241;50.920;6.936;2022-09-28T12:33:52;4.10;;;1.90;;
2458;SDS011;1241;50.920;6.936;2022-09-28T12:41:44;2.33;;;2.00;;
2458;SDS011;1241;50.920;6.936;2022-09-28T12:44:35;1.93;;;1.70;;
2458;SDS011;1241;50.920;6.936;2022-09-28T12:55:57;3.80;;;3.40;;
2458;SDS011;1241;50.920;6.936;2022-09-28T13:01:17;6.80;;;6.10;;
2458;SDS011;1241;50.920;6.936;2022-09-28T13:12:09;4.10;;;3.17;;
2458;SDS011;1241;50.920;6.936;2022-09-28T13:23:26;6.50;;;3.60;;
2458;SDS011;1241;50.920;6.936;2022-09-28T13:26:09;6.20;;;5.10;;
2458;SDS011;1241;50.920;6.936;2022-09-28T13:28:50;6.60;;;4.50;;
2458;SDS011;1241;50.920;6.936;2022-09-28T13:31:22;6.07;;;5.47;;
2458;SDS011;1241;50.920;6.936;2022-09-28T13:33:55;5.20;;;4.33;;
2458;SDS011;1241;50.920;6.936;2022-09-28T13:38:57;10.90;;;7.43;;
2458;SDS011;1241;50.920;6.936;2022-09-28T13:44:04;4.40;;;3.70;;
2458;SDS011;1241;50.920;6.936;2022-09-28T13:49:21;3.70;;;3.00;;
2458;SDS011;1241;50.920;6.936;2022-09-28T13:59:52;5.23;;;3.13;;
2458;SDS011;1241;50.920;6.936;2022-09-28T14:02:58;5.60;;;3.40;;
2458;SDS011;1241;50.920;6.936;2022-09-28T14:08:38;3.80;;;3.20;;
2458;SDS011;1241;50.920;6.936;2022-09-28T14:13:57;3.77;;;3.40;;
2458;SDS011;1241;50.920;6.936;2022-09-28T14:16:36;5.53;;;3.43;;
2458;SDS011;1241;50.920;6.936;2022-09-28T14:19:07;6.67;;;5.43;;
2458;SDS011;1241;50.920;6.936;2022-09-28T14:29:43;3.83;;;3.40;;
2458;SDS011;1241;50.920;6.936;2022-09-28T14:37:04;5.50;;;3.40;;
2458;SDS011;1241;50.920;6.936;2022-09-28T14:40:21;4.90;;;3.03;;
2458;SDS011;1241;50.920;6.936;2022-09-28T14:43:19;5.07;;;3.83;;
2458;SDS011;1241;50.920;6.936;2022-09-28T14:45:49;3.20;;;2.90;;
2458;SDS011;1241;50.920;6.936;2022-09-28T14:48:19;5.60;;;3.60;;
2458;SDS011;1241;50.920;6.936;2022-09-28T14:50:46;2.90;;;2.40;;
2458;SDS011;1241;50.920;6.936;2022-09-28T14:53:17;4.95;;;3.80;;
2458;SDS011;1241;50.920;6.936;2022-09-28T14:55:47;4.53;;;3.15;;
2458;SDS011;1241;50.920;6.936;2022-09-28T14:58:23;3.83;;;3.45;;
2458;SDS011;1241;50.920;6.936;2022-09-28T15:00:59;9.07;;;4.95;;
2458;SDS011;1241;50.920;6.936;2022-09-28T15:03:29;4.95;;;4.07;;
2458;SDS011;1241;50.920;6.936;2022-09-28T15:05:58;3.35;;;2.20;;
2458;SDS011;1241;50.920;6.936;2022-09-28T15:08:38;2.50;;;2.20;;
2458;SDS011;1241;50.920;6.936;2022-09-28T15:11:04;6.28;;;3.33;;
2458;SDS011;1241;50.920;6.936;2022-09-28T15:13:31;3.67;;;2.38;;
2458;SDS011;1241;50.920;6.936;2022-09-28T15:16:06;4.17;;;3.03;;
2458;SDS011;1241;50.920;6.936;2022-09-28T15:21:15;3.30;;;3.00;;
2458;SDS011;1241;50.920;6.936;2022-09-28T15:23:42;1.88;;;1.50;;
2458;SDS011;1241;50.920;6.936;2022-09-28T15:26:25;2.22;;;2.08;;
2458;SDS011;1241;50.920;6.936;2022-09-28T15:28:56;3.00;;;2.15;;
2458;SDS011;1241;50.920;6.936;2022-09-28T15:31:25;2.15;;;2.05;;
2458;SDS011;1241;50.920;6.936;2022-09-28T15:33:52;2.05;;;1.95;;
2458;SDS011;1241;50.920;6.936;2022-09-28T15:36:37;1.30;;;1.20;;
2458;SDS011;1241;50.920;6.936;2022-09-28T15:39:06;3.70;;;2.50;;
2458;SDS011;1241;50.920;6.936;2022-09-28T15:41:42;3.85;;;2.30;;
2458;SDS011;1241;50.920;6.936;2022-09-28T15:44:17;4.53;;;2.30;;
2458;SDS011;1241;50.920;6.936;2022-09-28T15:47:08;4.15;;;2.95;;
2458;SDS011;1241;50.920;6.936;2022-09-28T15:49:45;3.25;;;2.47;;
2458;SDS011;1241;50.920;6.936;2022-09-28T15:52:29;2.65;;;2.00;;
2458;SDS011;1241;50.920;6.936;2022-09-28T15:54:57;4.00;;;3.33;;
2458;SDS011;1241;50.920;6.936;2022-09-28T15:57:33;3.55;;;2.70;;
2458;SDS011;1241;50.920;6.936;2022-09-28T16:00:03;5.40;;;3.75;;
2458;SDS011;1241;50.920;6.936;2022-09-28T16:02:57;5.25;;;3.55;;
2458;SDS011;1241;50.920;6.936;2022-09-28T16:05:32;4.82;;;4.40;;
2458;SDS011;1241;50.920;6.936;2022-09-28T16:08:21;6.40;;;5.30;;
2458;SDS011;1241;50.920;6.936;2022-09-28T16:13:32;3.28;;;2.80;;
2458;SDS011;1241;50.920;6.936;2022-09-28T16:15:58;2.55;;;2.33;;
2458;SDS011;1241;50.920;6.936;2022-09-28T16:18:28;2.90;;;2.30;;
2458;SDS011;1241;50.920;6.936;2022-09-28T16:20:56;2.85;;;2.63;;
2458;SDS011;1241;50.920;6.936;2022-09-28T16:23:43;7.72;;;4.90;;
2458;SDS011;1241;50.920;6.936;2022-09-28T16:26:16;3.83;;;3.35;;
2458;SDS011;1241;50.920;6.936;2022-09-28T16:28:59;2.90;;;2.35;;
2458;SDS011;1241;50.920;6.936;2022-09-28T16:31:38;3.75;;;3.25;;
2458;SDS011;1241;50.920;6.936;2022-09-28T16:34:17;3.95;;;2.88;;
2458;SDS011;1241;50.920;6.936;2022-09-28T16:36:45;1.85;;;1.75;;
2458;SDS011;1241;50.920;6.936;2022-09-28T16:39:13;3.40;;;2.95;;
2458;SDS011;1241;50.920;6.936;2022-09-28T16:41:40;2.80;;;2.60;;
2458;SDS011;1241;50.920;6.936;2022-09-28T16:44:14;3.72;;;3.40;;
2458;SDS011;1241;50.920;6.936;2022-09-28T16:46:52;3.00;;;2.78;;
2458;SDS011;1241;50.920;6.936;2022-09-28T16:49:19;9.27;;;5.28;;
2458;SDS011;1241;50.920;6.936;2022-09-28T16:51:47;2.95;;;2.05;;
2458;SDS011;1241;50.920;6.936;2022-09-28T16:54:14;2.97;;;2.73;;
2458;SDS011;1241;50.920;6.936;2022-09-28T16:57:01;4.18;;;3.30;;
2458;SDS011;1241;50.920;6.936;2022-09-28T16:59:28;3.58;;;2.50;;
2458;SDS011;1241;50.920;6.936;2022-09-28T17:01:54;2.95;;;2.65;;
2458;SDS011;1241;50.920;6.936;2022-09-28T17:04:21;1.80;;;1.70;;
2458;SDS011;1241;50.920;6.936;2022-09-28T17:06:48;2.28;;;1.95;;
2458;SDS011;1241;50.920;6.936;2022-09-28T17:09:17;3.33;;;2.20;;
2458;SDS011;1241;50.920;6.936;2022-09-28T17:11:43;2.40;;;2.10;;
2458;SDS011;1241;50.920;6.936;2022-09-28T17:14:09;2.00;;;1.90;;
2458;SDS011;1241;50.920;6.936;2022-09-28T17:16:35;3.42;;;3.13;;
2458;SDS011;1241;50.920;6.936;2022-09-28T17:19:08;2.40;;;2.20;;
2458;SDS011;1241;50.920;6.936;2022-09-28T17:21:56;3.88;;;3.40;;
2458;SDS011;1241;50.920;6.936;2022-09-28T17:24:21;4.30;;;3.10;;
2458;SDS011;1241;50.920;6.936;2022-09-28T17:26:48;2.40;;;1.90;;
2458;SDS011;1241;50.920;6.936;2022-09-28T17:29:15;3.35;;;3.05;;
2458;SDS011;1241;50.920;6.936;2022-09-28T17:31:41;2.80;;;2.53;;
2458;SDS011;1241;50.920;6.936;2022-09-28T17:34:09;4.05;;;2.60;;
2458;SDS011;1241;50.920;6.936;2022-09-28T17:36:36;1.75;;;1.50;;
2458;SDS011;1241;50.920;6.936;2022-09-28T17:39:02;2.30;;;2.08;;
2458;SDS011;1241;50.920;6.936;2022-09-28T17:41:29;2.20;;;2.00;;
2458;SDS011;1241;50.920;6.936;2022-09-28T17:43:54;4.53;;;3.23;;
2458;SDS011;1241;50.920;6.936;2022-09-28T17:46:27;3.47;;;3.17;;
2458;SDS011;1241;50.920;6.936;2022-09-28T17:48:56;5.13;;;3.10;;
2458;SDS011;1241;50.920;6.936;2022-09-28T17:51:24;2.80;;;2.45;;
2458;SDS011;1241;50.920;6.936;2022-09-28T17:53:50;2.72;;;2.50;;
2458;SDS011;1241;50.920;6.936;2022-09-28T17:56:18;3.95;;;3.25;;
2458;SDS011;1241;50.920;6.936;2022-09-28T17:58:44;14.43;;;11.87;;
2458;SDS011;1241;50.920;6.936;2022-09-28T18:01:11;5.80;;;5.28;;
2458;SDS011;1241;50.920;6.936;2022-09-28T18:03:37;5.27;;;4.80;;
2458;SDS011;1241;50.920;6.936;2022-09-28T18:06:04;3.70;;;3.40;;
2458;SDS011;1241;50.920;6.936;2022-09-28T18:08:31;5.53;;;3.60;;
2458;SDS011;1241;50.920;6.936;2022-09-28T18:10:57;3.53;;;3.03;;
2458;SDS011;1241;50.920;6.936;2022-09-28T18:13:26;4.93;;;3.85;;
2458;SDS011;1241;50.920;6.936;2022-09-28T18:15:52;6.72;;;3.53;;
2458;SDS011;1241;50.920;6.936;2022-09-28T18:18:20;4.75;;;4.25;;
2458;SDS011;1241;50.920;6.936;2022-09-28T18:20:46;9.45;;;7.53;;
2458;SDS011;1241;50.920;6.936;2022-09-28T18:23:12;5.83;;;4.90;;
2458;SDS011;1241;50.920;6.936;2022-09-28T18:25:38;5.00;;;4.00;;
2458;SDS011;1241;50.920;6.936;2022-09-28T18:28:08;4.43;;;3.90;;
2458;SDS011;1241;50.920;6.936;2022-09-28T18:30:37;4.50;;;3.90;;